createdAt,value
2018-12-27T00:00:09.901Z,20.90
2018-12-27T00:01:09.894Z,21.00
2018-12-27T00:02:09.884Z,21.40
2018-12-27T00:03:09.879Z,21.60
2018-12-27T00:04:09.865Z,20.00
2018-12-27T00:05:09.845Z,21.50
2018-12-27T00:06:09.836Z,21.60
2018-12-27T00:07:09.826Z,20.00
2018-12-27T00:08:09.816Z,19.90
2018-12-27T00:09:09.804Z,20.60
2018-12-27T00:10:09.793Z,20.90
2018-12-27T00:11:09.786Z,21.00
2018-12-27T00:12:09.774Z,20.80
2018-12-27T00:13:09.763Z,20.60
2018-12-27T00:14:09.752Z,21.10
2018-12-27T00:15:09.743Z,21.20
2018-12-27T00:16:09.740Z,20.60
2018-12-27T00:17:09.723Z,22.40
2018-12-27T00:18:09.711Z,22.00
2018-12-27T00:19:09.721Z,21.50
2018-12-27T00:20:09.688Z,20.90
2018-12-27T00:21:09.682Z,19.50
2018-12-27T00:22:09.667Z,21.60
2018-12-27T00:23:09.655Z,21.60
2018-12-27T00:24:09.643Z,20.00
2018-12-27T00:25:09.649Z,21.10
2018-12-27T00:26:09.623Z,19.50
2018-12-27T00:27:09.610Z,19.00
2018-12-27T00:28:09.672Z,20.40
2018-12-27T00:29:09.591Z,18.60
2018-12-27T00:30:09.582Z,20.30
2018-12-27T00:31:09.573Z,20.30
2018-12-27T00:32:09.558Z,20.90
2018-12-27T00:33:09.543Z,20.70
2018-12-27T00:34:09.534Z,19.70
2018-12-27T00:35:09.541Z,19.90
2018-12-27T00:36:09.513Z,21.20
2018-12-27T00:37:09.502Z,20.50
2018-12-27T00:38:09.533Z,21.40
2018-12-27T00:39:09.483Z,21.20
2018-12-27T00:40:09.472Z,21.60
2018-12-27T00:41:09.459Z,21.40
2018-12-27T00:42:09.452Z,20.90
2018-12-27T00:43:09.441Z,21.80
2018-12-27T00:44:09.427Z,23.00
2018-12-27T00:45:09.416Z,21.50
2018-12-27T00:46:09.416Z,21.20
2018-12-27T00:47:09.397Z,22.60
2018-12-27T00:48:09.384Z,19.90
2018-12-27T00:49:09.381Z,21.20
2018-12-27T00:50:09.367Z,22.00
2018-12-27T00:51:09.353Z,22.00
2018-12-27T00:52:09.344Z,22.30
2018-12-27T00:53:09.334Z,21.00
2018-12-27T00:54:09.325Z,21.50
2018-12-27T00:55:09.321Z,21.90
2018-12-27T00:56:09.302Z,21.30
2018-12-27T00:57:09.288Z,21.80
2018-12-27T00:58:09.280Z,22.40
2018-12-27T00:59:09.266Z,21.40
2018-12-27T01:00:09.267Z,21.30
2018-12-27T01:01:09.248Z,20.90
2018-12-27T01:02:09.247Z,21.10
2018-12-27T01:03:11.343Z,21.00
2018-12-27T01:04:09.213Z,20.90
2018-12-27T01:05:09.203Z,20.50
2018-12-27T01:06:09.199Z,20.40
2018-12-27T01:07:09.184Z,20.90
2018-12-27T01:08:09.171Z,20.10
2018-12-27T01:09:09.167Z,20.30
2018-12-27T01:10:09.152Z,20.30
2018-12-27T01:11:09.145Z,19.50
2018-12-27T01:12:09.127Z,20.90
2018-12-27T01:13:09.131Z,19.90
2018-12-27T01:14:09.110Z,18.90
2018-12-27T01:15:09.104Z,20.10
2018-12-27T01:16:09.087Z,19.60
2018-12-27T01:17:09.078Z,19.80
2018-12-27T01:18:09.068Z,19.80
2018-12-27T01:19:09.053Z,21.30
2018-12-27T01:20:09.042Z,19.80
2018-12-27T01:21:09.062Z,18.40
2018-12-27T01:22:09.022Z,20.10
2018-12-27T01:23:09.013Z,20.80
2018-12-27T01:24:08.999Z,20.10
2018-12-27T01:25:08.988Z,19.80
2018-12-27T01:26:08.979Z,20.60
2018-12-27T01:27:08.972Z,19.20
2018-12-27T01:28:08.957Z,20.10
2018-12-27T01:29:08.948Z,21.10
2018-12-27T01:30:08.936Z,21.30
2018-12-27T01:31:08.924Z,20.10
2018-12-27T01:32:08.915Z,20.40
2018-12-27T01:33:08.907Z,19.30
2018-12-27T01:34:08.893Z,20.40
2018-12-27T01:35:08.886Z,19.60
2018-12-27T01:36:08.875Z,20.90
2018-12-27T01:37:08.859Z,19.50
2018-12-27T01:38:08.848Z,20.10
2018-12-27T01:39:08.840Z,20.80
2018-12-27T01:40:08.827Z,20.80
2018-12-27T01:41:08.824Z,22.30
2018-12-27T01:42:08.807Z,20.10
2018-12-27T01:43:08.797Z,20.80
2018-12-27T01:44:08.789Z,19.40
2018-12-27T01:45:08.773Z,21.70
2018-12-27T01:46:08.763Z,20.70
2018-12-27T01:47:08.759Z,20.10
2018-12-27T01:48:08.743Z,20.10
2018-12-27T01:49:08.730Z,21.60
2018-12-27T01:50:08.719Z,20.90
2018-12-27T01:51:08.711Z,19.70
2018-12-27T01:52:08.698Z,19.90
2018-12-27T01:53:08.692Z,20.80
2018-12-27T01:54:08.677Z,18.70
2018-12-27T01:55:08.671Z,19.50
2018-12-27T01:56:08.660Z,19.50
2018-12-27T01:57:08.647Z,18.50
2018-12-27T01:58:08.637Z,18.60
2018-12-27T01:59:08.627Z,20.70
2018-12-27T02:00:08.617Z,19.20
2018-12-27T02:01:08.608Z,19.80
2018-12-27T02:02:08.594Z,19.80
2018-12-27T02:03:08.580Z,19.40
2018-12-27T02:04:08.575Z,20.00
2018-12-27T02:05:09.527Z,20.20
2018-12-27T02:06:08.550Z,20.30
2018-12-27T02:07:08.540Z,19.90
2018-12-27T02:08:08.527Z,18.80
2018-12-27T02:09:08.523Z,19.30
2018-12-27T02:10:08.509Z,19.30
2018-12-27T02:11:08.495Z,18.90
2018-12-27T02:12:08.552Z,19.00
2018-12-27T02:13:08.474Z,18.80
2018-12-27T02:14:08.468Z,19.90
2018-12-27T02:15:08.462Z,18.30
2018-12-27T02:16:08.441Z,18.50
2018-12-27T02:17:08.432Z,18.90
2018-12-27T02:18:08.420Z,19.30
2018-12-27T02:19:08.411Z,19.40
2018-12-27T02:20:08.399Z,19.10
2018-12-27T02:21:08.387Z,18.00
2018-12-27T02:22:08.378Z,18.80
2018-12-27T02:23:08.372Z,19.40
2018-12-27T02:24:08.358Z,18.10
2018-12-27T02:25:08.348Z,17.00
2018-12-27T02:26:08.337Z,17.80
2018-12-27T02:27:08.323Z,18.20
2018-12-27T02:28:08.315Z,18.20
2018-12-27T02:29:08.305Z,18.80
2018-12-27T02:30:08.297Z,17.70
2018-12-27T02:31:08.290Z,17.50
2018-12-27T02:32:08.273Z,17.50
2018-12-27T02:33:08.261Z,17.70
2018-12-27T02:34:08.249Z,18.10
2018-12-27T02:35:08.238Z,17.50
2018-12-27T02:36:08.227Z,17.80
2018-12-27T02:37:08.220Z,17.90
2018-12-27T02:38:08.205Z,17.90
2018-12-27T02:39:08.197Z,17.10
2018-12-27T02:40:08.191Z,17.30
2018-12-27T02:41:08.174Z,17.80
2018-12-27T02:42:08.163Z,16.90
2018-12-27T02:43:08.150Z,16.70
2018-12-27T02:44:08.143Z,16.50
2018-12-27T02:45:08.136Z,17.30
2018-12-27T02:46:08.136Z,16.80
2018-12-27T02:47:08.115Z,17.50
2018-12-27T02:48:08.099Z,16.30
2018-12-27T02:49:08.087Z,16.90
2018-12-27T02:50:08.082Z,16.20
2018-12-27T02:51:08.071Z,16.00
2018-12-27T02:52:08.056Z,16.00
2018-12-27T02:53:08.057Z,16.40
2018-12-27T02:54:08.037Z,16.30
2018-12-27T02:55:08.024Z,15.90
2018-12-27T02:56:08.012Z,14.80
2018-12-27T02:57:08.003Z,15.70
2018-12-27T02:58:07.993Z,15.50
2018-12-27T02:59:07.982Z,16.40
2018-12-27T03:00:07.969Z,15.40
2018-12-27T03:01:07.965Z,14.60
2018-12-27T03:02:07.954Z,16.00
2018-12-27T03:03:07.942Z,16.30
2018-12-27T03:04:07.933Z,15.90
2018-12-27T03:05:07.918Z,15.10
2018-12-27T03:06:07.908Z,16.50
2018-12-27T03:07:07.899Z,15.60
2018-12-27T03:08:07.887Z,16.10
2018-12-27T03:09:07.879Z,16.30
2018-12-27T03:10:07.870Z,17.40
2018-12-27T03:11:07.858Z,16.40
2018-12-27T03:12:07.844Z,16.30
2018-12-27T03:13:07.834Z,17.90
2018-12-27T03:14:07.821Z,18.10
2018-12-27T03:15:07.811Z,16.40
2018-12-27T03:16:07.874Z,17.10
2018-12-27T03:17:07.790Z,16.50
2018-12-27T03:18:07.783Z,18.10
2018-12-27T03:19:07.773Z,16.50
2018-12-27T03:20:07.759Z,17.40
2018-12-27T03:21:07.746Z,16.30
2018-12-27T03:22:07.737Z,17.90
2018-12-27T03:23:07.728Z,16.70
2018-12-27T03:24:07.832Z,14.80
2018-12-27T03:25:07.711Z,15.50
2018-12-27T03:26:07.695Z,15.20
2018-12-27T03:27:07.681Z,16.00
2018-12-27T03:28:07.709Z,16.00
2018-12-27T03:29:07.663Z,14.20
2018-12-27T03:30:07.652Z,14.70
2018-12-27T03:31:07.645Z,14.90
2018-12-27T03:32:07.635Z,14.80
2018-12-27T03:33:07.621Z,15.70
2018-12-27T03:34:07.614Z,15.70
2018-12-27T03:35:07.596Z,16.00
2018-12-27T03:36:07.586Z,16.00
2018-12-27T03:37:07.573Z,16.10
2018-12-27T03:38:07.563Z,15.10
2018-12-27T03:39:07.559Z,16.30
2018-12-27T03:40:07.542Z,15.40
2018-12-27T03:41:07.535Z,15.20
2018-12-27T03:42:07.527Z,15.30
2018-12-27T03:43:07.519Z,14.80
2018-12-27T03:44:07.500Z,14.10
2018-12-27T03:45:07.489Z,16.10
2018-12-27T03:46:07.480Z,15.70
2018-12-27T03:47:07.466Z,14.20
2018-12-27T03:48:07.460Z,16.10
2018-12-27T03:49:07.589Z,14.90
2018-12-27T03:50:07.436Z,14.20
2018-12-27T03:51:07.422Z,14.40
2018-12-27T03:52:07.536Z,14.90
2018-12-27T03:53:07.413Z,15.10
2018-12-27T03:54:07.394Z,14.90
2018-12-27T03:55:07.385Z,15.20
2018-12-27T03:56:07.373Z,14.80
2018-12-27T03:57:07.370Z,15.40
2018-12-27T03:58:07.356Z,16.00
2018-12-27T03:59:07.340Z,15.10
2018-12-27T04:00:07.327Z,15.90
2018-12-27T04:01:07.319Z,15.10
2018-12-27T04:02:07.308Z,14.80
2018-12-27T04:03:07.302Z,14.30
2018-12-27T04:04:07.311Z,14.70
2018-12-27T04:05:07.278Z,14.70
2018-12-27T04:06:07.276Z,14.10
2018-12-27T04:07:07.254Z,13.20
2018-12-27T04:08:07.242Z,13.50
2018-12-27T04:09:07.229Z,13.80
2018-12-27T04:10:07.241Z,13.00
2018-12-27T04:11:07.213Z,14.10
2018-12-27T04:12:07.204Z,14.30
2018-12-27T04:13:07.190Z,14.10
2018-12-27T04:14:07.178Z,13.20
2018-12-27T04:15:07.166Z,14.50
2018-12-27T04:16:07.155Z,14.20
2018-12-27T04:17:07.148Z,13.90
2018-12-27T04:18:07.136Z,13.40
2018-12-27T04:19:07.128Z,13.30
2018-12-27T04:20:07.113Z,13.50
2018-12-27T04:21:07.109Z,13.20
2018-12-27T04:22:07.091Z,13.30
2018-12-27T04:23:07.081Z,13.10
2018-12-27T04:24:07.073Z,12.70
2018-12-27T04:25:07.058Z,13.30
2018-12-27T04:26:07.049Z,14.00
2018-12-27T04:27:07.037Z,12.60
2018-12-27T04:28:07.033Z,13.30
2018-12-27T04:29:07.018Z,14.20
2018-12-27T04:30:07.102Z,13.20
2018-12-27T04:31:07.001Z,14.10
2018-12-27T04:32:06.983Z,14.10
2018-12-27T04:33:06.973Z,13.50
2018-12-27T04:34:09.664Z,12.90
2018-12-27T04:35:06.953Z,13.60
2018-12-27T04:36:06.942Z,13.80
2018-12-27T04:37:06.931Z,13.80
2018-12-27T04:38:06.920Z,14.00
2018-12-27T04:39:06.928Z,13.90
2018-12-27T04:40:06.901Z,13.90
2018-12-27T04:41:06.891Z,13.70
2018-12-27T04:42:06.878Z,13.90
2018-12-27T04:43:06.866Z,14.10
2018-12-27T04:44:06.859Z,13.90
2018-12-27T04:45:06.844Z,14.40
2018-12-27T04:46:06.832Z,14.20
2018-12-27T04:47:06.825Z,13.50
2018-12-27T04:48:06.812Z,14.50
2018-12-27T04:49:06.800Z,14.50
2018-12-27T04:50:06.791Z,15.10
2018-12-27T04:51:06.785Z,14.10
2018-12-27T04:52:06.775Z,14.40
2018-12-27T04:53:06.761Z,14.30
2018-12-27T04:54:06.807Z,13.80
2018-12-27T04:55:06.738Z,13.60
2018-12-27T04:56:06.726Z,13.10
2018-12-27T04:57:06.715Z,14.00
2018-12-27T04:58:06.705Z,13.20
2018-12-27T04:59:06.701Z,13.80
2018-12-27T05:00:06.683Z,13.20
2018-12-27T05:01:06.672Z,13.20
2018-12-27T05:02:06.663Z,13.80
2018-12-27T05:03:06.651Z,12.40
2018-12-27T05:04:06.641Z,10.10
2018-12-27T05:05:06.631Z,10.80
2018-12-27T05:06:06.623Z,11.50
2018-12-27T05:07:06.610Z,12.00
2018-12-27T05:08:06.598Z,11.00
2018-12-27T05:09:06.590Z,11.60
2018-12-27T05:10:06.577Z,12.80
2018-12-27T05:11:06.565Z,11.30
2018-12-27T05:12:06.559Z,11.00
2018-12-27T05:13:06.544Z,11.90
2018-12-27T05:14:06.535Z,11.50
2018-12-27T05:15:06.525Z,11.20
2018-12-27T05:16:06.513Z,11.50
2018-12-27T05:17:06.503Z,11.00
2018-12-27T05:18:06.490Z,11.30
2018-12-27T05:19:06.480Z,11.30
2018-12-27T05:20:06.469Z,11.40
2018-12-27T05:21:06.458Z,11.00
2018-12-27T05:22:06.448Z,11.00
2018-12-27T05:23:06.441Z,11.40
2018-12-27T05:24:06.425Z,11.40
2018-12-27T05:25:06.417Z,11.80
2018-12-27T05:26:06.406Z,12.40
2018-12-27T05:27:06.398Z,11.60
2018-12-27T05:28:06.389Z,10.60
2018-12-27T05:29:06.371Z,11.90
2018-12-27T05:30:06.360Z,10.80
2018-12-27T05:31:06.352Z,11.90
2018-12-27T05:32:06.345Z,12.10
2018-12-27T05:33:06.333Z,11.20
2018-12-27T05:34:06.318Z,11.60
2018-12-27T05:35:06.309Z,10.60
2018-12-27T05:36:06.299Z,10.20
2018-12-27T05:37:06.287Z,10.10
2018-12-27T05:38:06.277Z,9.60
2018-12-27T05:39:06.266Z,11.00
2018-12-27T05:40:06.257Z,11.00
2018-12-27T05:41:06.244Z,10.50
2018-12-27T05:42:06.232Z,10.60
2018-12-27T05:43:06.226Z,10.80
2018-12-27T05:44:06.213Z,11.00
2018-12-27T05:45:06.206Z,11.30
2018-12-27T05:46:06.191Z,10.10
2018-12-27T05:47:06.179Z,11.30
2018-12-27T05:48:06.168Z,10.50
2018-12-27T05:49:06.159Z,11.30
2018-12-27T05:50:06.150Z,11.60
2018-12-27T05:51:06.136Z,10.50
2018-12-27T05:52:06.127Z,11.10
2018-12-27T05:53:06.115Z,10.80
2018-12-27T05:54:06.105Z,10.20
2018-12-27T05:55:06.093Z,11.30
2018-12-27T05:56:06.084Z,10.70
2018-12-27T05:57:06.072Z,10.70
2018-12-27T05:58:06.063Z,10.70
2018-12-27T05:59:06.051Z,9.90
2018-12-27T06:00:06.045Z,10.00
2018-12-27T06:01:06.031Z,10.00
2018-12-27T06:02:06.018Z,10.30
2018-12-27T06:03:06.009Z,10.00
2018-12-27T06:04:05.999Z,9.60
2018-12-27T06:05:05.991Z,9.80
2018-12-27T06:06:05.979Z,10.50
2018-12-27T06:07:05.970Z,10.80
2018-12-27T06:08:05.956Z,10.60
2018-12-27T06:09:05.948Z,10.10
2018-12-27T06:10:05.931Z,9.60
2018-12-27T06:11:05.922Z,9.60
2018-12-27T06:12:05.910Z,11.60
2018-12-27T06:13:05.903Z,12.10
2018-12-27T06:14:05.890Z,12.80
2018-12-27T06:15:05.880Z,12.90
2018-12-27T06:16:05.869Z,11.70
2018-12-27T06:17:05.874Z,10.50
2018-12-27T06:18:05.848Z,11.60
2018-12-27T06:19:05.836Z,10.40
2018-12-27T06:20:05.827Z,14.70
2018-12-27T06:21:05.814Z,13.80
2018-12-27T06:22:05.806Z,13.00
2018-12-27T06:23:05.797Z,11.40
2018-12-27T06:24:05.787Z,13.00
2018-12-27T06:25:05.773Z,11.00
2018-12-27T06:26:05.766Z,10.10
2018-12-27T06:27:05.748Z,9.70
2018-12-27T06:28:05.741Z,9.90
2018-12-27T06:29:05.734Z,9.20
2018-12-27T06:30:05.722Z,10.30
2018-12-27T06:31:05.710Z,9.60
2018-12-27T06:32:05.696Z,9.40
2018-12-27T06:33:05.684Z,9.30
2018-12-27T06:34:05.674Z,9.20
2018-12-27T06:35:05.665Z,8.70
2018-12-27T06:36:05.659Z,9.80
2018-12-27T06:37:05.645Z,9.60
2018-12-27T06:38:05.640Z,10.00
2018-12-27T06:39:05.624Z,9.30
2018-12-27T06:40:05.611Z,10.20
2018-12-27T06:41:05.602Z,9.50
2018-12-27T06:42:05.590Z,9.90
2018-12-27T06:43:05.578Z,9.50
2018-12-27T06:44:05.567Z,10.00
2018-12-27T06:45:05.558Z,9.50
2018-12-27T06:46:05.545Z,9.30
2018-12-27T06:47:05.537Z,9.00
2018-12-27T06:48:05.526Z,8.90
2018-12-27T06:49:05.515Z,9.70
2018-12-27T06:50:05.504Z,10.10
2018-12-27T06:51:05.493Z,9.10
2018-12-27T06:52:05.487Z,9.40
2018-12-27T06:53:05.484Z,9.30
2018-12-27T06:54:05.467Z,9.60
2018-12-27T06:55:05.453Z,10.20
2018-12-27T06:56:05.456Z,9.00
2018-12-27T06:57:05.436Z,8.80
2018-12-27T06:58:05.424Z,9.20
2018-12-27T06:59:05.408Z,9.50
2018-12-27T07:00:05.519Z,9.80
2018-12-27T07:01:05.388Z,8.60
2018-12-27T07:02:05.380Z,8.70
2018-12-27T07:03:05.379Z,9.40
2018-12-27T07:04:05.357Z,9.00
2018-12-27T07:05:05.344Z,9.00
2018-12-27T07:06:05.338Z,8.60
2018-12-27T07:07:05.327Z,8.70
2018-12-27T07:08:05.320Z,10.30
2018-12-27T07:09:05.305Z,9.30
2018-12-27T07:10:05.290Z,8.80
2018-12-27T07:11:05.282Z,9.40
2018-12-27T07:12:05.268Z,9.40
2018-12-27T07:13:05.261Z,9.10
2018-12-27T07:14:05.249Z,9.30
2018-12-27T07:15:05.237Z,8.50
2018-12-27T07:16:05.229Z,9.80
2018-12-27T07:17:05.219Z,12.60
2018-12-27T07:18:05.206Z,11.00
2018-12-27T07:19:05.201Z,12.20
2018-12-27T07:20:05.186Z,11.80
2018-12-27T07:21:05.176Z,11.80
2018-12-27T07:22:05.170Z,13.60
2018-12-27T07:23:05.156Z,11.50
2018-12-27T07:24:05.144Z,12.30
2018-12-27T07:25:05.183Z,13.40
2018-12-27T07:26:05.120Z,12.20
2018-12-27T07:27:05.113Z,14.70
2018-12-27T07:28:05.102Z,13.70
2018-12-27T07:29:05.088Z,13.40
2018-12-27T07:30:05.078Z,13.70
2018-12-27T07:31:05.069Z,10.20
2018-12-27T07:32:05.058Z,12.60
2018-12-27T07:33:05.047Z,9.30
2018-12-27T07:34:05.037Z,10.60
2018-12-27T07:35:05.024Z,10.50
2018-12-27T07:36:05.016Z,12.10
2018-12-27T07:37:05.007Z,11.20
2018-12-27T07:38:04.995Z,10.40
2018-12-27T07:39:04.985Z,10.00
2018-12-27T07:40:04.974Z,10.10
2018-12-27T07:41:04.961Z,10.90
2018-12-27T07:42:04.954Z,10.60
2018-12-27T07:43:04.941Z,11.10
2018-12-27T07:44:04.931Z,9.90
2018-12-27T07:45:04.920Z,10.20
2018-12-27T07:46:10.852Z,10.50
2018-12-27T07:47:05.899Z,10.70
2018-12-27T07:48:04.888Z,11.10
2018-12-27T07:49:04.878Z,10.00
2018-12-27T07:50:04.871Z,10.50
2018-12-27T07:51:04.877Z,10.30
2018-12-27T07:52:04.845Z,10.80
2018-12-27T07:53:04.836Z,10.70
2018-12-27T07:54:04.828Z,10.90
2018-12-27T07:55:04.817Z,10.70
2018-12-27T07:56:04.808Z,11.00
2018-12-27T07:57:04.793Z,10.60
2018-12-27T07:58:04.781Z,11.00
2018-12-27T07:59:04.771Z,11.50
2018-12-27T08:00:04.766Z,11.70
2018-12-27T08:01:04.793Z,10.20
2018-12-27T08:02:04.739Z,10.20
2018-12-27T08:03:04.728Z,11.10
2018-12-27T08:04:04.717Z,10.10
2018-12-27T08:05:04.707Z,10.50
2018-12-27T08:06:04.696Z,10.70
2018-12-27T08:07:04.686Z,10.20
2018-12-27T08:08:04.677Z,10.40
2018-12-27T08:09:04.666Z,11.10
2018-12-27T08:10:04.652Z,10.30
2018-12-27T08:11:04.644Z,11.50
2018-12-27T08:12:04.630Z,11.30
2018-12-27T08:13:04.622Z,10.50
2018-12-27T08:14:04.612Z,10.90
2018-12-27T08:15:04.601Z,10.90
2018-12-27T08:16:04.658Z,11.30
2018-12-27T08:17:04.580Z,10.80
2018-12-27T08:18:04.568Z,10.60
2018-12-27T08:19:04.558Z,11.10
2018-12-27T08:20:04.545Z,11.50
2018-12-27T08:21:04.536Z,10.70
2018-12-27T08:22:04.525Z,11.70
2018-12-27T08:23:04.515Z,11.10
2018-12-27T08:24:04.505Z,10.80
2018-12-27T08:25:04.494Z,11.00
2018-12-27T08:26:04.482Z,10.90
2018-12-27T08:27:04.473Z,10.70
2018-12-27T08:28:04.460Z,11.00
2018-12-27T08:29:04.455Z,11.00
2018-12-27T08:30:04.441Z,11.70
2018-12-27T08:31:04.430Z,11.70
2018-12-27T08:32:04.419Z,10.70
2018-12-27T08:33:04.407Z,11.10
2018-12-27T08:34:04.397Z,11.10
2018-12-27T08:35:11.278Z,11.60
2018-12-27T08:36:05.380Z,11.20
2018-12-27T08:37:04.366Z,11.90
2018-12-27T08:38:04.368Z,11.60
2018-12-27T08:39:04.344Z,11.30
2018-12-27T08:40:04.338Z,11.40
2018-12-27T08:41:04.328Z,11.90
2018-12-27T08:42:04.313Z,11.70
2018-12-27T08:43:04.304Z,12.30
2018-12-27T08:44:04.294Z,11.40
2018-12-27T08:45:04.286Z,11.90
2018-12-27T08:46:04.270Z,12.20
2018-12-27T08:47:04.261Z,12.20
2018-12-27T08:48:04.250Z,11.90
2018-12-27T08:49:04.243Z,11.80
2018-12-27T08:50:04.230Z,11.90
2018-12-27T08:51:04.216Z,12.50
2018-12-27T08:52:04.274Z,11.70
2018-12-27T08:53:04.195Z,12.30
2018-12-27T08:54:04.184Z,12.70
2018-12-27T08:55:04.181Z,12.50
2018-12-27T08:56:04.164Z,12.50
2018-12-27T08:57:04.153Z,12.90
2018-12-27T08:58:04.143Z,13.50
2018-12-27T08:59:04.131Z,12.30
2018-12-27T09:00:04.124Z,13.20
2018-12-27T09:01:04.110Z,12.50
2018-12-27T09:02:04.100Z,13.70
2018-12-27T09:03:04.089Z,12.60
2018-12-27T09:04:04.078Z,12.70
2018-12-27T09:05:04.069Z,12.50
2018-12-27T09:06:04.056Z,13.30
2018-12-27T09:07:04.218Z,13.60
2018-12-27T09:08:04.038Z,13.60
2018-12-27T09:09:04.038Z,12.40
2018-12-27T09:10:04.019Z,12.90
2018-12-27T09:11:04.003Z,12.80
2018-12-27T09:12:03.993Z,12.80
2018-12-27T09:13:03.986Z,12.00
2018-12-27T09:14:03.975Z,11.90
2018-12-27T09:15:03.960Z,12.90
2018-12-27T09:16:03.950Z,13.30
2018-12-27T09:17:03.939Z,13.30
2018-12-27T09:18:03.927Z,12.60
2018-12-27T09:19:03.918Z,12.70
2018-12-27T09:20:03.905Z,12.60
2018-12-27T09:21:03.897Z,12.60
2018-12-27T09:22:03.885Z,12.20
2018-12-27T09:23:03.873Z,12.60
2018-12-27T09:24:03.864Z,13.10
2018-12-27T09:25:03.854Z,13.40
2018-12-27T09:26:03.843Z,12.90
2018-12-27T09:27:03.836Z,12.80
2018-12-27T09:28:03.822Z,13.00
2018-12-27T09:29:03.811Z,12.30
2018-12-27T09:30:03.800Z,13.00
2018-12-27T09:31:03.792Z,12.60
2018-12-27T09:32:03.781Z,13.40
2018-12-27T09:33:03.767Z,13.00
2018-12-27T09:34:03.758Z,13.20
2018-12-27T09:35:03.748Z,12.80
2018-12-27T09:36:03.743Z,13.80
2018-12-27T09:37:03.730Z,13.60
2018-12-27T09:38:03.717Z,13.40
2018-12-27T09:39:03.704Z,13.60
2018-12-27T09:40:03.693Z,14.60
2018-12-27T09:41:03.684Z,14.00
2018-12-27T09:42:03.677Z,14.00
2018-12-27T09:43:03.661Z,13.80
2018-12-27T09:44:03.652Z,12.90
2018-12-27T09:45:03.642Z,13.40
2018-12-27T09:46:03.630Z,12.90
2018-12-27T09:47:03.620Z,12.60
2018-12-27T09:48:03.611Z,13.40
2018-12-27T09:49:03.598Z,12.60
2018-12-27T09:50:03.586Z,12.40
2018-12-27T09:51:03.582Z,12.00
2018-12-27T09:52:03.564Z,12.40
2018-12-27T09:53:03.555Z,12.50
2018-12-27T09:54:03.544Z,13.30
2018-12-27T09:55:03.535Z,13.30
2018-12-27T09:56:03.523Z,12.80
2018-12-27T09:57:03.514Z,12.60
2018-12-27T09:58:03.501Z,12.60
2018-12-27T09:59:03.503Z,12.70
2018-12-27T10:00:03.494Z,13.30
2018-12-27T10:01:03.476Z,13.50
2018-12-27T10:02:03.459Z,13.10
2018-12-27T10:03:03.455Z,13.00
2018-12-27T10:04:03.437Z,12.80
2018-12-27T10:05:03.428Z,13.10
2018-12-27T10:06:04.589Z,13.90
2018-12-27T10:07:03.405Z,17.10
2018-12-27T10:08:03.393Z,15.20
2018-12-27T10:09:03.386Z,13.80
2018-12-27T10:10:03.372Z,13.70
2018-12-27T10:11:03.363Z,13.30
2018-12-27T10:12:03.359Z,13.80
2018-12-27T10:13:03.343Z,13.90
2018-12-27T10:14:03.341Z,16.00
2018-12-27T10:15:03.319Z,15.40
2018-12-27T10:16:03.311Z,14.60
2018-12-27T10:17:03.300Z,13.80
2018-12-27T10:18:03.288Z,13.40
2018-12-27T10:19:03.280Z,14.30
2018-12-27T10:20:03.268Z,13.70
2018-12-27T10:21:03.254Z,13.20
2018-12-27T10:22:03.245Z,14.30
2018-12-27T10:23:03.234Z,13.10
2018-12-27T10:24:03.227Z,12.90
2018-12-27T10:25:03.212Z,13.80
2018-12-27T10:26:03.207Z,14.70
2018-12-27T10:27:03.193Z,13.10
2018-12-27T10:28:03.180Z,13.30
2018-12-27T10:29:03.177Z,12.70
2018-12-27T10:30:03.175Z,12.80
2018-12-27T10:31:03.148Z,13.50
2018-12-27T10:32:03.139Z,13.20
2018-12-27T10:33:03.129Z,13.30
2018-12-27T10:34:03.121Z,12.90
2018-12-27T10:35:03.112Z,12.80
2018-12-27T10:36:03.096Z,13.50
2018-12-27T10:37:03.084Z,12.40
2018-12-27T10:38:03.073Z,12.40
2018-12-27T10:39:03.067Z,12.60
2018-12-27T10:40:03.055Z,11.90
2018-12-27T10:41:03.041Z,13.10
2018-12-27T10:42:03.034Z,12.60
2018-12-27T10:43:03.026Z,12.60
2018-12-27T10:44:03.010Z,11.90
2018-12-27T10:45:03.000Z,11.90
2018-12-27T10:46:02.992Z,11.70
2018-12-27T10:47:02.975Z,11.60
2018-12-27T10:48:02.965Z,12.50
2018-12-27T10:49:02.957Z,12.40
2018-12-27T10:50:02.946Z,11.20
2018-12-27T10:51:02.935Z,11.70
2018-12-27T10:52:02.926Z,11.50
2018-12-27T10:53:02.913Z,11.70
2018-12-27T10:54:02.900Z,11.50
2018-12-27T10:55:02.893Z,11.40
2018-12-27T10:56:02.882Z,11.50
2018-12-27T10:57:02.869Z,12.00
2018-12-27T10:58:02.858Z,11.70
2018-12-27T10:59:02.849Z,12.40
2018-12-27T11:00:02.838Z,11.90
2018-12-27T11:01:02.833Z,12.00
2018-12-27T11:02:02.819Z,11.90
2018-12-27T11:03:02.804Z,12.00
2018-12-27T11:04:02.794Z,11.60
2018-12-27T11:05:02.784Z,10.70
2018-12-27T11:06:02.773Z,12.20
2018-12-27T11:07:02.761Z,11.90
2018-12-27T11:08:02.753Z,12.40
2018-12-27T11:09:02.743Z,11.50
2018-12-27T11:10:02.729Z,12.20
2018-12-27T11:11:02.720Z,12.20
2018-12-27T11:12:02.718Z,11.70
2018-12-27T11:13:02.698Z,11.70
2018-12-27T11:14:02.687Z,12.20
2018-12-27T11:15:02.676Z,12.40
2018-12-27T11:16:02.668Z,12.00
2018-12-27T11:17:02.657Z,12.00
2018-12-27T11:18:02.645Z,11.40
2018-12-27T11:19:02.634Z,11.90
2018-12-27T11:20:02.625Z,11.90
2018-12-27T11:21:02.621Z,11.80
2018-12-27T11:22:02.603Z,10.90
2018-12-27T11:23:02.591Z,12.20
2018-12-27T11:24:02.582Z,11.70
2018-12-27T11:25:02.575Z,11.70
2018-12-27T11:26:02.560Z,12.20
2018-12-27T11:27:02.548Z,11.20
2018-12-27T11:28:02.539Z,11.30
2018-12-27T11:29:02.530Z,11.50
2018-12-27T11:30:02.522Z,10.50
2018-12-27T11:31:02.505Z,11.10
2018-12-27T11:32:02.495Z,10.70
2018-12-27T11:33:02.495Z,10.20
2018-12-27T11:34:02.472Z,10.60
2018-12-27T11:35:02.464Z,10.80
2018-12-27T11:36:02.452Z,10.80
2018-12-27T11:37:02.439Z,10.30
2018-12-27T11:38:02.430Z,10.60
2018-12-27T11:39:02.420Z,10.60
2018-12-27T11:40:02.409Z,10.50
2018-12-27T11:41:02.399Z,10.50
2018-12-27T11:42:02.389Z,11.00
2018-12-27T11:43:02.374Z,10.20
2018-12-27T11:44:02.372Z,10.20
2018-12-27T11:45:02.354Z,10.90
2018-12-27T11:46:02.345Z,10.10
2018-12-27T11:47:02.337Z,10.50
2018-12-27T11:48:02.323Z,10.20
2018-12-27T11:49:02.314Z,10.30
2018-12-27T11:50:02.301Z,10.60
2018-12-27T11:51:02.290Z,10.60
2018-12-27T11:52:02.290Z,10.60
2018-12-27T11:53:02.271Z,9.90
2018-12-27T11:54:02.263Z,9.80
2018-12-27T11:55:02.248Z,11.10
2018-12-27T11:56:02.237Z,10.00
2018-12-27T11:57:02.229Z,10.00
2018-12-27T11:58:02.216Z,11.00
2018-12-27T11:59:02.209Z,10.20
2018-12-27T12:00:02.200Z,9.70
2018-12-27T12:01:02.185Z,9.70
2018-12-27T12:02:02.173Z,9.90
2018-12-27T12:03:02.161Z,10.20
2018-12-27T12:04:02.151Z,10.20
2018-12-27T12:05:02.143Z,9.90
2018-12-27T12:06:03.395Z,10.10
2018-12-27T12:07:02.119Z,9.90
2018-12-27T12:08:02.111Z,9.30
2018-12-27T12:09:02.102Z,10.00
2018-12-27T12:10:02.088Z,10.20
2018-12-27T12:11:02.083Z,9.70
2018-12-27T12:12:02.063Z,10.00
2018-12-27T12:13:02.054Z,10.30
2018-12-27T12:14:02.048Z,9.70
2018-12-27T12:15:02.034Z,10.30
2018-12-27T12:16:02.022Z,10.10
2018-12-27T12:17:02.015Z,10.40
2018-12-27T12:18:02.002Z,11.00
2018-12-27T12:19:01.992Z,9.50
2018-12-27T12:20:01.977Z,10.40
2018-12-27T12:21:01.969Z,10.30
2018-12-27T12:22:01.957Z,10.00
2018-12-27T12:23:01.949Z,10.40
2018-12-27T12:24:01.955Z,10.10
2018-12-27T12:25:01.926Z,10.20
2018-12-27T12:26:01.913Z,11.20
2018-12-27T12:27:01.904Z,10.50
2018-12-27T12:28:01.893Z,10.00
2018-12-27T12:29:01.882Z,11.50
2018-12-27T12:30:01.876Z,9.90
2018-12-27T12:31:01.859Z,10.60
2018-12-27T12:32:01.850Z,11.30
2018-12-27T12:33:01.837Z,11.00
2018-12-27T12:34:01.829Z,10.60
2018-12-27T12:35:01.832Z,10.80
2018-12-27T12:36:01.808Z,11.30
2018-12-27T12:37:01.795Z,11.40
2018-12-27T12:38:01.786Z,11.70
2018-12-27T12:39:01.774Z,10.40
2018-12-27T12:40:01.791Z,11.60
2018-12-27T12:41:01.753Z,11.50
2018-12-27T12:42:01.748Z,12.00
2018-12-27T12:43:01.732Z,10.90
2018-12-27T12:44:01.721Z,10.60
2018-12-27T12:45:01.712Z,10.50
2018-12-27T12:46:01.702Z,10.70
2018-12-27T12:47:01.719Z,11.70
2018-12-27T12:48:01.679Z,10.70
2018-12-27T12:49:01.668Z,10.30
2018-12-27T12:50:01.659Z,10.40
2018-12-27T12:51:01.648Z,11.00
2018-12-27T12:52:01.639Z,10.90
2018-12-27T12:53:01.675Z,10.50
2018-12-27T12:54:01.614Z,10.00